sensor_id;sensor_type;location;lat;lon;timestamp;P1;durP1;ratioP1;P2;durP2;ratioP2
46561;SDS011;32289;42.688;23.330;2022-10-24T00:03:33;13.55;;;4.72;;
46561;SDS011;32289;42.688;23.330;2022-10-24T00:07:14;12.43;;;5.70;;
46561;SDS011;32289;42.688;23.330;2022-10-24T00:10:54;12.85;;;4.70;;
46561;SDS011;32289;42.688;23.330;2022-10-24T00:14:35;11.27;;;4.85;;
46561;SDS011;32289;42.688;23.330;2022-10-24T00:18:16;12.80;;;5.18;;
46561;SDS011;32289;42.688;23.330;2022-10-24T00:21:57;12.20;;;5.10;;
46561;SDS011;32289;42.688;23.330;2022-10-24T00:25:38;9.95;;;4.38;;
46561;SDS011;32289;42.688;23.330;2022-10-24T00:29:19;14.45;;;4.32;;
46561;SDS011;32289;42.688;23.330;2022-10-24T00:33:00;10.90;;;4.18;;
46561;SDS011;32289;42.688;23.330;2022-10-24T00:36:41;11.02;;;4.20;;
46561;SDS011;32289;42.688;23.330;2022-10-24T00:40:24;13.65;;;4.80;;
46561;SDS011;32289;42.688;23.330;2022-10-24T00:44:25;9.18;;;4.13;;
46561;SDS011;32289;42.688;23.330;2022-10-24T00:48:11;9.50;;;4.95;;
46561;SDS011;32289;42.688;23.330;2022-10-24T00:51:59;7.32;;;3.50;;
46561;SDS011;32289;42.688;23.330;2022-10-24T00:55:42;7.32;;;3.85;;
46561;SDS011;32289;42.688;23.330;2022-10-24T00:59:27;10.25;;;4.38;;
46561;SDS011;32289;42.688;23.330;2022-10-24T01:03:09;10.15;;;4.88;;
46561;SDS011;32289;42.688;23.330;2022-10-24T01:11:03;9.02;;;4.32;;
46561;SDS011;32289;42.688;23.330;2022-10-24T01:31:15;9.68;;;4.13;;
46561;SDS011;32289;42.688;23.330;2022-10-24T01:35:22;11.73;;;4.63;;
46561;SDS011;32289;42.688;23.330;2022-10-24T01:39:38;11.02;;;4.72;;
46561;SDS011;32289;42.688;23.330;2022-10-24T01:43:36;7.60;;;3.85;;
46561;SDS011;32289;42.688;23.330;2022-10-24T01:47:28;10.95;;;5.30;;
46561;SDS011;32289;42.688;23.330;2022-10-24T01:51:15;7.45;;;4.20;;
46561;SDS011;32289;42.688;23.330;2022-10-24T01:54:58;8.52;;;4.20;;
46561;SDS011;32289;42.688;23.330;2022-10-24T01:58:40;9.23;;;4.00;;
46561;SDS011;32289;42.688;23.330;2022-10-24T02:02:22;8.43;;;4.07;;
46561;SDS011;32289;42.688;23.330;2022-10-24T02:06:24;9.40;;;4.45;;
46561;SDS011;32289;42.688;23.330;2022-10-24T02:10:13;8.75;;;3.95;;
46561;SDS011;32289;42.688;23.330;2022-10-24T02:14:04;9.77;;;4.82;;
46561;SDS011;32289;42.688;23.330;2022-10-24T02:17:49;7.20;;;3.72;;
46561;SDS011;32289;42.688;23.330;2022-10-24T02:21:36;13.07;;;4.88;;
46561;SDS011;32289;42.688;23.330;2022-10-24T02:25:21;12.10;;;4.67;;
46561;SDS011;32289;42.688;23.330;2022-10-24T02:29:08;9.20;;;4.30;;
46561;SDS011;32289;42.688;23.330;2022-10-24T02:32:57;8.05;;;5.20;;
46561;SDS011;32289;42.688;23.330;2022-10-24T02:36:42;7.68;;;4.18;;
46561;SDS011;32289;42.688;23.330;2022-10-24T02:40:26;13.23;;;4.80;;
46561;SDS011;32289;42.688;23.330;2022-10-24T02:44:06;10.82;;;4.60;;
46561;SDS011;32289;42.688;23.330;2022-10-24T02:47:49;12.30;;;4.70;;
46561;SDS011;32289;42.688;23.330;2022-10-24T02:51:37;12.18;;;4.55;;
46561;SDS011;32289;42.688;23.330;2022-10-24T02:55:20;9.05;;;4.03;;
46561;SDS011;32289;42.688;23.330;2022-10-24T02:59:01;13.18;;;4.30;;
46561;SDS011;32289;42.688;23.330;2022-10-24T03:02:42;7.40;;;3.90;;
46561;SDS011;32289;42.688;23.330;2022-10-24T03:06:23;7.30;;;4.45;;
46561;SDS011;32289;42.688;23.330;2022-10-24T03:10:04;9.50;;;4.05;;
46561;SDS011;32289;42.688;23.330;2022-10-24T03:13:45;9.73;;;4.60;;
46561;SDS011;32289;42.688;23.330;2022-10-24T03:17:25;10.40;;;4.40;;
46561;SDS011;32289;42.688;23.330;2022-10-24T03:21:06;10.15;;;4.43;;
46561;SDS011;32289;42.688;23.330;2022-10-24T03:24:47;9.50;;;4.53;;
46561;SDS011;32289;42.688;23.330;2022-10-24T03:28:28;6.50;;;4.03;;
46561;SDS011;32289;42.688;23.330;2022-10-24T03:32:09;15.63;;;4.90;;
46561;SDS011;32289;42.688;23.330;2022-10-24T03:35:51;10.57;;;4.63;;
46561;SDS011;32289;42.688;23.330;2022-10-24T03:39:32;8.20;;;3.88;;
46561;SDS011;32289;42.688;23.330;2022-10-24T03:43:13;8.15;;;4.90;;
46561;SDS011;32289;42.688;23.330;2022-10-24T03:46:55;9.75;;;4.20;;
46561;SDS011;32289;42.688;23.330;2022-10-24T03:50:36;9.07;;;4.03;;
46561;SDS011;32289;42.688;23.330;2022-10-24T03:54:16;5.47;;;3.22;;
46561;SDS011;32289;42.688;23.330;2022-10-24T03:57:57;9.82;;;4.28;;
46561;SDS011;32289;42.688;23.330;2022-10-24T04:01:40;10.65;;;4.18;;
46561;SDS011;32289;42.688;23.330;2022-10-24T04:05:21;15.18;;;4.70;;
46561;SDS011;32289;42.688;23.330;2022-10-24T04:09:02;11.90;;;4.43;;
46561;SDS011;32289;42.688;23.330;2022-10-24T04:12:43;12.77;;;5.32;;
46561;SDS011;32289;42.688;23.330;2022-10-24T04:16:24;7.60;;;3.58;;
46561;SDS011;32289;42.688;23.330;2022-10-24T04:20:05;7.70;;;3.75;;
46561;SDS011;32289;42.688;23.330;2022-10-24T04:23:46;9.48;;;4.15;;
46561;SDS011;32289;42.688;23.330;2022-10-24T04:27:26;12.18;;;4.78;;
46561;SDS011;32289;42.688;23.330;2022-10-24T04:31:07;12.77;;;5.68;;
46561;SDS011;32289;42.688;23.330;2022-10-24T04:34:48;15.93;;;6.22;;
46561;SDS011;32289;42.688;23.330;2022-10-24T04:38:29;11.88;;;5.15;;
46561;SDS011;32289;42.688;23.330;2022-10-24T04:42:10;15.55;;;4.57;;
46561;SDS011;32289;42.688;23.330;2022-10-24T04:45:50;10.02;;;5.90;;
46561;SDS011;32289;42.688;23.330;2022-10-24T04:49:31;10.88;;;5.07;;
46561;SDS011;32289;42.688;23.330;2022-10-24T04:53:12;10.15;;;5.03;;
46561;SDS011;32289;42.688;23.330;2022-10-24T04:56:53;8.57;;;4.57;;
46561;SDS011;32289;42.688;23.330;2022-10-24T05:00:34;9.52;;;5.00;;
46561;SDS011;32289;42.688;23.330;2022-10-24T05:04:15;9.98;;;5.20;;
46561;SDS011;32289;42.688;23.330;2022-10-24T05:07:55;11.85;;;5.35;;
46561;SDS011;32289;42.688;23.330;2022-10-24T05:11:36;14.00;;;6.90;;
46561;SDS011;32289;42.688;23.330;2022-10-24T05:15:17;15.93;;;6.90;;
46561;SDS011;32289;42.688;23.330;2022-10-24T05:18:58;15.15;;;6.85;;
46561;SDS011;32289;42.688;23.330;2022-10-24T05:22:38;18.42;;;6.70;;
46561;SDS011;32289;42.688;23.330;2022-10-24T05:26:19;16.48;;;7.47;;
46561;SDS011;32289;42.688;23.330;2022-10-24T05:30:00;12.43;;;5.93;;
46561;SDS011;32289;42.688;23.330;2022-10-24T05:33:41;11.65;;;6.22;;
46561;SDS011;32289;42.688;23.330;2022-10-24T05:37:21;9.43;;;6.60;;
46561;SDS011;32289;42.688;23.330;2022-10-24T05:41:02;24.02;;;7.28;;
46561;SDS011;32289;42.688;23.330;2022-10-24T05:44:43;12.27;;;6.22;;
46561;SDS011;32289;42.688;23.330;2022-10-24T05:48:24;16.17;;;6.38;;
46561;SDS011;32289;42.688;23.330;2022-10-24T05:52:05;13.25;;;6.72;;
46561;SDS011;32289;42.688;23.330;2022-10-24T05:55:46;19.08;;;6.70;;
46561;SDS011;32289;42.688;23.330;2022-10-24T05:59:27;15.85;;;6.72;;
46561;SDS011;32289;42.688;23.330;2022-10-24T06:03:08;13.88;;;6.22;;
46561;SDS011;32289;42.688;23.330;2022-10-24T06:06:50;12.35;;;6.90;;
46561;SDS011;32289;42.688;23.330;2022-10-24T06:10:31;11.50;;;6.68;;
46561;SDS011;32289;42.688;23.330;2022-10-24T06:14:13;21.98;;;6.40;;
46561;SDS011;32289;42.688;23.330;2022-10-24T06:17:55;14.43;;;6.15;;
46561;SDS011;32289;42.688;23.330;2022-10-24T06:21:36;17.85;;;6.50;;
46561;SDS011;32289;42.688;23.330;2022-10-24T06:25:17;18.10;;;7.75;;
46561;SDS011;32289;42.688;23.330;2022-10-24T06:28:58;15.95;;;6.78;;
46561;SDS011;32289;42.688;23.330;2022-10-24T06:32:39;23.17;;;7.93;;
46561;SDS011;32289;42.688;23.330;2022-10-24T06:36:20;22.98;;;8.35;;
46561;SDS011;32289;42.688;23.330;2022-10-24T06:40:01;20.33;;;8.05;;
46561;SDS011;32289;42.688;23.330;2022-10-24T06:43:42;15.25;;;7.90;;
46561;SDS011;32289;42.688;23.330;2022-10-24T06:47:23;25.08;;;8.90;;
46561;SDS011;32289;42.688;23.330;2022-10-24T06:51:04;16.42;;;8.52;;
46561;SDS011;32289;42.688;23.330;2022-10-24T06:54:45;18.73;;;7.88;;
46561;SDS011;32289;42.688;23.330;2022-10-24T06:58:29;15.73;;;7.28;;
46561;SDS011;32289;42.688;23.330;2022-10-24T07:02:19;16.40;;;7.05;;
46561;SDS011;32289;42.688;23.330;2022-10-24T07:06:04;16.60;;;8.00;;
46561;SDS011;32289;42.688;23.330;2022-10-24T07:09:51;15.98;;;7.25;;
46561;SDS011;32289;42.688;23.330;2022-10-24T07:13:33;15.68;;;7.80;;
46561;SDS011;32289;42.688;23.330;2022-10-24T07:17:14;15.32;;;7.47;;
46561;SDS011;32289;42.688;23.330;2022-10-24T07:21:03;16.02;;;7.75;;
46561;SDS011;32289;42.688;23.330;2022-10-24T07:28:31;16.83;;;7.25;;
46561;SDS011;32289;42.688;23.330;2022-10-24T07:32:12;19.52;;;7.15;;
46561;SDS011;32289;42.688;23.330;2022-10-24T07:36:04;19.60;;;6.95;;
46561;SDS011;32289;42.688;23.330;2022-10-24T07:40:19;13.38;;;7.03;;
46561;SDS011;32289;42.688;23.330;2022-10-24T07:44:01;13.63;;;7.25;;
46561;SDS011;32289;42.688;23.330;2022-10-24T07:47:42;15.00;;;7.80;;
46561;SDS011;32289;42.688;23.330;2022-10-24T07:51:23;19.40;;;8.50;;
46561;SDS011;32289;42.688;23.330;2022-10-24T07:55:07;18.50;;;8.07;;
46561;SDS011;32289;42.688;23.330;2022-10-24T07:58:48;18.20;;;7.50;;
46561;SDS011;32289;42.688;23.330;2022-10-24T08:02:28;13.68;;;7.53;;
46561;SDS011;32289;42.688;23.330;2022-10-24T08:06:10;14.57;;;7.88;;
46561;SDS011;32289;42.688;23.330;2022-10-24T08:09:55;11.40;;;7.35;;
46561;SDS011;32289;42.688;23.330;2022-10-24T08:13:36;17.17;;;8.02;;
46561;SDS011;32289;42.688;23.330;2022-10-24T08:17:17;14.70;;;7.32;;
46561;SDS011;32289;42.688;23.330;2022-10-24T08:20:59;11.70;;;6.90;;
46561;SDS011;32289;42.688;23.330;2022-10-24T08:24:42;14.82;;;7.32;;
46561;SDS011;32289;42.688;23.330;2022-10-24T08:28:23;10.43;;;6.43;;
46561;SDS011;32289;42.688;23.330;2022-10-24T08:32:04;15.35;;;9.30;;
46561;SDS011;32289;42.688;23.330;2022-10-24T08:35:48;12.80;;;5.63;;
46561;SDS011;32289;42.688;23.330;2022-10-24T08:39:29;13.52;;;6.15;;
46561;SDS011;32289;42.688;23.330;2022-10-24T08:43:10;16.92;;;7.72;;
46561;SDS011;32289;42.688;23.330;2022-10-24T08:50:44;14.15;;;6.55;;
46561;SDS011;32289;42.688;23.330;2022-10-24T08:54:34;12.77;;;5.90;;
46561;SDS011;32289;42.688;23.330;2022-10-24T08:58:28;10.77;;;6.35;;
46561;SDS011;32289;42.688;23.330;2022-10-24T09:02:16;12.10;;;6.68;;
46561;SDS011;32289;42.688;23.330;2022-10-24T09:06:02;12.80;;;7.10;;
46561;SDS011;32289;42.688;23.330;2022-10-24T09:09:59;10.65;;;6.03;;
46561;SDS011;32289;42.688;23.330;2022-10-24T09:14:10;11.52;;;7.10;;
46561;SDS011;32289;42.688;23.330;2022-10-24T09:17:57;15.45;;;5.80;;
46561;SDS011;32289;42.688;23.330;2022-10-24T09:21:39;11.80;;;5.57;;
46561;SDS011;32289;42.688;23.330;2022-10-24T09:25:23;18.90;;;6.18;;
46561;SDS011;32289;42.688;23.330;2022-10-24T09:29:10;17.38;;;6.35;;
46561;SDS011;32289;42.688;23.330;2022-10-24T09:32:52;11.43;;;5.78;;
46561;SDS011;32289;42.688;23.330;2022-10-24T09:36:34;7.78;;;5.28;;
46561;SDS011;32289;42.688;23.330;2022-10-24T09:44:02;10.68;;;5.90;;
46561;SDS011;32289;42.688;23.330;2022-10-24T09:47:44;15.32;;;6.22;;
46561;SDS011;32289;42.688;23.330;2022-10-24T09:51:32;11.95;;;5.35;;
46561;SDS011;32289;42.688;23.330;2022-10-24T09:55:21;11.10;;;5.07;;
46561;SDS011;32289;42.688;23.330;2022-10-24T09:59:18;11.50;;;5.28;;
46561;SDS011;32289;42.688;23.330;2022-10-24T10:03:20;11.50;;;6.00;;
46561;SDS011;32289;42.688;23.330;2022-10-24T10:07:07;11.48;;;5.88;;
46561;SDS011;32289;42.688;23.330;2022-10-24T10:10:56;9.80;;;5.40;;
46561;SDS011;32289;42.688;23.330;2022-10-24T10:14:40;13.45;;;7.55;;
46561;SDS011;32289;42.688;23.330;2022-10-24T10:22:08;11.05;;;5.00;;
46561;SDS011;32289;42.688;23.330;2022-10-24T10:37:43;9.05;;;4.57;;
46561;SDS011;32289;42.688;23.330;2022-10-24T10:41:58;9.57;;;4.25;;
46561;SDS011;32289;42.688;23.330;2022-10-24T10:50:17;6.45;;;3.78;;
46561;SDS011;32289;42.688;23.330;2022-10-24T10:58:22;7.80;;;3.42;;
46561;SDS011;32289;42.688;23.330;2022-10-24T11:10:13;9.65;;;3.80;;
46561;SDS011;32289;42.688;23.330;2022-10-24T11:17:43;9.43;;;4.38;;
46561;SDS011;32289;42.688;23.330;2022-10-24T11:21:24;13.65;;;3.67;;
46561;SDS011;32289;42.688;23.330;2022-10-24T11:25:24;7.25;;;3.80;;
46561;SDS011;32289;42.688;23.330;2022-10-24T11:33:04;10.80;;;3.60;;
46561;SDS011;32289;42.688;23.330;2022-10-24T11:40:44;9.80;;;4.00;;
46561;SDS011;32289;42.688;23.330;2022-10-24T11:52:30;6.25;;;4.47;;
46561;SDS011;32289;42.688;23.330;2022-10-24T12:00:22;10.63;;;4.88;;
46561;SDS011;32289;42.688;23.330;2022-10-24T12:20:19;12.27;;;4.23;;
46561;SDS011;32289;42.688;23.330;2022-10-24T12:24:02;12.32;;;4.55;;
46561;SDS011;32289;42.688;23.330;2022-10-24T12:27:43;14.85;;;5.38;;
46561;SDS011;32289;42.688;23.330;2022-10-24T12:31:34;8.35;;;4.30;;
46561;SDS011;32289;42.688;23.330;2022-10-24T12:39:07;11.40;;;4.63;;
46561;SDS011;32289;42.688;23.330;2022-10-24T12:57:51;10.15;;;3.55;;
46561;SDS011;32289;42.688;23.330;2022-10-24T13:01:33;10.63;;;4.55;;
46561;SDS011;32289;42.688;23.330;2022-10-24T13:05:20;8.00;;;3.80;;
46561;SDS011;32289;42.688;23.330;2022-10-24T13:21:33;8.77;;;4.05;;
46561;SDS011;32289;42.688;23.330;2022-10-24T13:25:36;17.13;;;7.10;;
46561;SDS011;32289;42.688;23.330;2022-10-24T13:37:19;16.38;;;6.25;;
46561;SDS011;32289;42.688;23.330;2022-10-24T13:41:09;10.98;;;4.57;;
46561;SDS011;32289;42.688;23.330;2022-10-24T13:44:53;10.30;;;3.47;;
46561;SDS011;32289;42.688;23.330;2022-10-24T13:48:39;9.70;;;2.85;;
46561;SDS011;32289;42.688;23.330;2022-10-24T13:56:15;13.18;;;4.72;;
46561;SDS011;32289;42.688;23.330;2022-10-24T13:59:57;19.88;;;5.63;;
46561;SDS011;32289;42.688;23.330;2022-10-24T14:03:41;15.55;;;5.53;;
46561;SDS011;32289;42.688;23.330;2022-10-24T14:07:27;8.43;;;4.43;;
46561;SDS011;32289;42.688;23.330;2022-10-24T14:11:14;18.30;;;7.32;;
46561;SDS011;32289;42.688;23.330;2022-10-24T14:14:58;13.70;;;5.93;;
46561;SDS011;32289;42.688;23.330;2022-10-24T14:18:41;15.90;;;5.95;;
46561;SDS011;32289;42.688;23.330;2022-10-24T14:22:24;13.77;;;5.05;;
46561;SDS011;32289;42.688;23.330;2022-10-24T14:26:11;15.35;;;6.13;;
46561;SDS011;32289;42.688;23.330;2022-10-24T14:29:56;11.13;;;5.03;;
46561;SDS011;32289;42.688;23.330;2022-10-24T14:33:43;11.13;;;4.47;;
46561;SDS011;32289;42.688;23.330;2022-10-24T14:37:29;24.27;;;12.00;;
46561;SDS011;32289;42.688;23.330;2022-10-24T14:41:14;18.20;;;7.88;;
46561;SDS011;32289;42.688;23.330;2022-10-24T14:44:55;13.05;;;4.93;;
46561;SDS011;32289;42.688;23.330;2022-10-24T14:48:36;14.75;;;6.15;;
46561;SDS011;32289;42.688;23.330;2022-10-24T14:52:26;16.73;;;7.82;;
46561;SDS011;32289;42.688;23.330;2022-10-24T14:56:30;19.60;;;7.20;;
46561;SDS011;32289;42.688;23.330;2022-10-24T15:00:35;12.13;;;6.55;;
46561;SDS011;32289;42.688;23.330;2022-10-24T15:04:38;19.38;;;6.80;;
46561;SDS011;32289;42.688;23.330;2022-10-24T15:08:40;20.40;;;7.55;;
46561;SDS011;32289;42.688;23.330;2022-10-24T15:12:31;17.25;;;6.55;;
46561;SDS011;32289;42.688;23.330;2022-10-24T15:16:27;17.05;;;8.00;;
46561;SDS011;32289;42.688;23.330;2022-10-24T15:20:15;15.73;;;6.03;;
46561;SDS011;32289;42.688;23.330;2022-10-24T15:24:01;14.07;;;5.20;;
46561;SDS011;32289;42.688;23.330;2022-10-24T15:27:43;16.80;;;6.40;;
46561;SDS011;32289;42.688;23.330;2022-10-24T15:31:24;24.85;;;6.75;;
46561;SDS011;32289;42.688;23.330;2022-10-24T15:35:06;23.23;;;8.68;;
46561;SDS011;32289;42.688;23.330;2022-10-24T15:38:52;28.70;;;7.13;;
46561;SDS011;32289;42.688;23.330;2022-10-24T15:42:35;16.90;;;7.10;;
46561;SDS011;32289;42.688;23.330;2022-10-24T15:46:18;22.98;;;9.18;;
46561;SDS011;32289;42.688;23.330;2022-10-24T15:50:00;15.18;;;5.47;;
46561;SDS011;32289;42.688;23.330;2022-10-24T15:53:42;17.48;;;6.18;;
46561;SDS011;32289;42.688;23.330;2022-10-24T15:57:23;15.63;;;6.40;;
46561;SDS011;32289;42.688;23.330;2022-10-24T16:01:04;22.60;;;6.82;;
46561;SDS011;32289;42.688;23.330;2022-10-24T16:04:45;19.70;;;7.22;;
46561;SDS011;32289;42.688;23.330;2022-10-24T16:08:26;10.05;;;5.80;;
46561;SDS011;32289;42.688;23.330;2022-10-24T16:12:07;20.63;;;6.45;;
46561;SDS011;32289;42.688;23.330;2022-10-24T16:15:51;25.88;;;7.45;;
46561;SDS011;32289;42.688;23.330;2022-10-24T16:19:32;17.35;;;7.15;;
46561;SDS011;32289;42.688;23.330;2022-10-24T16:23:14;19.52;;;6.40;;
46561;SDS011;32289;42.688;23.330;2022-10-24T16:26:55;24.73;;;8.23;;
46561;SDS011;32289;42.688;23.330;2022-10-24T16:30:37;16.58;;;5.75;;
46561;SDS011;32289;42.688;23.330;2022-10-24T16:34:19;16.27;;;6.18;;
46561;SDS011;32289;42.688;23.330;2022-10-24T16:38:00;19.25;;;6.93;;
46561;SDS011;32289;42.688;23.330;2022-10-24T16:41:42;22.40;;;7.63;;
46561;SDS011;32289;42.688;23.330;2022-10-24T16:45:25;18.27;;;6.53;;
46561;SDS011;32289;42.688;23.330;2022-10-24T16:49:06;20.15;;;6.13;;
46561;SDS011;32289;42.688;23.330;2022-10-24T16:52:46;20.10;;;8.20;;
46561;SDS011;32289;42.688;23.330;2022-10-24T16:56:27;19.40;;;8.18;;
46561;SDS011;32289;42.688;23.330;2022-10-24T17:00:09;16.73;;;8.30;;
46561;SDS011;32289;42.688;23.330;2022-10-24T17:03:54;22.27;;;8.63;;
46561;SDS011;32289;42.688;23.330;2022-10-24T17:07:35;15.77;;;6.45;;
46561;SDS011;32289;42.688;23.330;2022-10-24T17:11:15;34.40;;;8.05;;
46561;SDS011;32289;42.688;23.330;2022-10-24T17:14:56;24.30;;;7.38;;
46561;SDS011;32289;42.688;23.330;2022-10-24T17:18:37;21.80;;;8.80;;
46561;SDS011;32289;42.688;23.330;2022-10-24T17:22:18;18.08;;;8.75;;
46561;SDS011;32289;42.688;23.330;2022-10-24T17:25:59;30.67;;;10.68;;
46561;SDS011;32289;42.688;23.330;2022-10-24T17:29:40;24.10;;;9.88;;
46561;SDS011;32289;42.688;23.330;2022-10-24T17:33:21;18.02;;;7.43;;
46561;SDS011;32289;42.688;23.330;2022-10-24T17:37:08;18.45;;;7.28;;
46561;SDS011;32289;42.688;23.330;2022-10-24T17:41:16;19.83;;;7.30;;
46561;SDS011;32289;42.688;23.330;2022-10-24T17:45:05;30.02;;;8.32;;
46561;SDS011;32289;42.688;23.330;2022-10-24T17:52:36;22.95;;;7.95;;
46561;SDS011;32289;42.688;23.330;2022-10-24T17:56:21;17.70;;;7.70;;
46561;SDS011;32289;42.688;23.330;2022-10-24T18:00:02;24.50;;;8.32;;
46561;SDS011;32289;42.688;23.330;2022-10-24T18:03:43;20.48;;;8.50;;
46561;SDS011;32289;42.688;23.330;2022-10-24T18:07:24;17.80;;;7.13;;
46561;SDS011;32289;42.688;23.330;2022-10-24T18:11:05;17.13;;;9.10;;
46561;SDS011;32289;42.688;23.330;2022-10-24T18:14:48;24.27;;;7.63;;
46561;SDS011;32289;42.688;23.330;2022-10-24T18:18:28;19.52;;;7.40;;
46561;SDS011;32289;42.688;23.330;2022-10-24T18:22:09;17.98;;;6.88;;
46561;SDS011;32289;42.688;23.330;2022-10-24T18:25:50;15.68;;;7.28;;
46561;SDS011;32289;42.688;23.330;2022-10-24T18:29:31;22.35;;;7.97;;
46561;SDS011;32289;42.688;23.330;2022-10-24T18:33:11;24.13;;;8.27;;
46561;SDS011;32289;42.688;23.330;2022-10-24T18:36:53;28.73;;;9.15;;
46561;SDS011;32289;42.688;23.330;2022-10-24T18:40:33;25.95;;;7.88;;
46561;SDS011;32289;42.688;23.330;2022-10-24T18:44:24;20.88;;;8.43;;
46561;SDS011;32289;42.688;23.330;2022-10-24T18:48:06;22.35;;;7.40;;
46561;SDS011;32289;42.688;23.330;2022-10-24T18:51:54;23.70;;;8.80;;
46561;SDS011;32289;42.688;23.330;2022-10-24T18:55:54;28.98;;;7.85;;
46561;SDS011;32289;42.688;23.330;2022-10-24T18:59:35;20.80;;;7.80;;
46561;SDS011;32289;42.688;23.330;2022-10-24T19:03:31;14.07;;;6.50;;
46561;SDS011;32289;42.688;23.330;2022-10-24T19:07:15;21.40;;;7.40;;
46561;SDS011;32289;42.688;23.330;2022-10-24T19:10:58;21.05;;;8.13;;
46561;SDS011;32289;42.688;23.330;2022-10-24T19:14:39;16.25;;;6.90;;
46561;SDS011;32289;42.688;23.330;2022-10-24T19:18:19;21.88;;;7.70;;
46561;SDS011;32289;42.688;23.330;2022-10-24T19:22:00;20.73;;;7.43;;
46561;SDS011;32289;42.688;23.330;2022-10-24T19:25:41;18.02;;;7.38;;
46561;SDS011;32289;42.688;23.330;2022-10-24T19:29:23;30.38;;;9.85;;
46561;SDS011;32289;42.688;23.330;2022-10-24T19:33:04;24.13;;;7.50;;
46561;SDS011;32289;42.688;23.330;2022-10-24T19:36:44;23.70;;;7.50;;
46561;SDS011;32289;42.688;23.330;2022-10-24T19:40:25;18.25;;;8.45;;
46561;SDS011;32289;42.688;23.330;2022-10-24T19:44:06;17.33;;;7.75;;
46561;SDS011;32289;42.688;23.330;2022-10-24T19:47:47;21.67;;;7.18;;
46561;SDS011;32289;42.688;23.330;2022-10-24T19:51:27;17.30;;;7.30;;
46561;SDS011;32289;42.688;23.330;2022-10-24T19:55:08;25.23;;;7.40;;
46561;SDS011;32289;42.688;23.330;2022-10-24T19:58:49;14.18;;;7.15;;
46561;SDS011;32289;42.688;23.330;2022-10-24T20:02:30;18.02;;;8.25;;
46561;SDS011;32289;42.688;23.330;2022-10-24T20:06:14;25.50;;;8.27;;
46561;SDS011;32289;42.688;23.330;2022-10-24T20:09:56;20.98;;;7.47;;
46561;SDS011;32289;42.688;23.330;2022-10-24T20:13:39;21.55;;;7.75;;
46561;SDS011;32289;42.688;23.330;2022-10-24T20:17:20;29.33;;;7.25;;
46561;SDS011;32289;42.688;23.330;2022-10-24T20:21:02;16.20;;;5.97;;
46561;SDS011;32289;42.688;23.330;2022-10-24T20:24:43;17.02;;;6.70;;
46561;SDS011;32289;42.688;23.330;2022-10-24T20:28:24;26.15;;;7.20;;
46561;SDS011;32289;42.688;23.330;2022-10-24T20:32:05;21.42;;;8.43;;
46561;SDS011;32289;42.688;23.330;2022-10-24T20:35:45;21.98;;;7.60;;
46561;SDS011;32289;42.688;23.330;2022-10-24T20:39:27;16.77;;;7.03;;
46561;SDS011;32289;42.688;23.330;2022-10-24T20:43:07;19.25;;;6.80;;
46561;SDS011;32289;42.688;23.330;2022-10-24T20:46:48;16.10;;;7.00;;
46561;SDS011;32289;42.688;23.330;2022-10-24T20:50:29;16.88;;;7.10;;
46561;SDS011;32289;42.688;23.330;2022-10-24T20:54:10;17.70;;;7.18;;
46561;SDS011;32289;42.688;23.330;2022-10-24T20:57:51;17.73;;;6.40;;
46561;SDS011;32289;42.688;23.330;2022-10-24T21:01:32;16.10;;;7.32;;
46561;SDS011;32289;42.688;23.330;2022-10-24T21:05:12;19.00;;;5.70;;
46561;SDS011;32289;42.688;23.330;2022-10-24T21:08:54;16.10;;;6.18;;
46561;SDS011;32289;42.688;23.330;2022-10-24T21:12:37;16.20;;;6.28;;
46561;SDS011;32289;42.688;23.330;2022-10-24T21:16:17;16.77;;;6.60;;
46561;SDS011;32289;42.688;23.330;2022-10-24T21:19:58;20.55;;;6.25;;
46561;SDS011;32289;42.688;23.330;2022-10-24T21:23:39;23.20;;;6.07;;
46561;SDS011;32289;42.688;23.330;2022-10-24T21:27:20;18.65;;;6.90;;
46561;SDS011;32289;42.688;23.330;2022-10-24T21:31:04;17.48;;;6.20;;
46561;SDS011;32289;42.688;23.330;2022-10-24T21:34:52;17.92;;;6.22;;
46561;SDS011;32289;42.688;23.330;2022-10-24T21:38:33;18.13;;;6.45;;
46561;SDS011;32289;42.688;23.330;2022-10-24T21:42:14;15.65;;;7.13;;
46561;SDS011;32289;42.688;23.330;2022-10-24T21:46:00;13.90;;;5.75;;
46561;SDS011;32289;42.688;23.330;2022-10-24T21:49:59;15.45;;;5.53;;
46561;SDS011;32289;42.688;23.330;2022-10-24T21:53:41;22.17;;;6.20;;
46561;SDS011;32289;42.688;23.330;2022-10-24T21:57:23;16.13;;;5.85;;
46561;SDS011;32289;42.688;23.330;2022-10-24T22:01:10;18.45;;;6.82;;
46561;SDS011;32289;42.688;23.330;2022-10-24T22:04:52;16.05;;;5.90;;
46561;SDS011;32289;42.688;23.330;2022-10-24T22:08:36;17.95;;;5.78;;
46561;SDS011;32289;42.688;23.330;2022-10-24T22:12:17;16.55;;;6.13;;
46561;SDS011;32289;42.688;23.330;2022-10-24T22:15:57;21.75;;;6.38;;
46561;SDS011;32289;42.688;23.330;2022-10-24T22:19:39;14.70;;;5.97;;
46561;SDS011;32289;42.688;23.330;2022-10-24T22:23:20;14.35;;;6.30;;
46561;SDS011;32289;42.688;23.330;2022-10-24T22:27:01;19.52;;;6.32;;
46561;SDS011;32289;42.688;23.330;2022-10-24T22:30:43;14.40;;;5.70;;
46561;SDS011;32289;42.688;23.330;2022-10-24T22:58:16;16.17;;;5.97;;
46561;SDS011;32289;42.688;23.330;2022-10-24T23:05:50;13.88;;;5.07;;
46561;SDS011;32289;42.688;23.330;2022-10-24T23:09:38;13.57;;;5.70;;
46561;SDS011;32289;42.688;23.330;2022-10-24T23:13:18;17.73;;;4.78;;
46561;SDS011;32289;42.688;23.330;2022-10-24T23:16:59;16.90;;;4.45;;
46561;SDS011;32289;42.688;23.330;2022-10-24T23:20:41;14.77;;;5.22;;
46561;SDS011;32289;42.688;23.330;2022-10-24T23:24:27;15.23;;;5.35;;
46561;SDS011;32289;42.688;23.330;2022-10-24T23:28:23;22.30;;;5.85;;
46561;SDS011;32289;42.688;23.330;2022-10-24T23:32:24;9.93;;;3.78;;
46561;SDS011;32289;42.688;23.330;2022-10-24T23:36:07;16.27;;;5.03;;
46561;SDS011;32289;42.688;23.330;2022-10-24T23:40:05;12.05;;;4.68;;
46561;SDS011;32289;42.688;23.330;2022-10-24T23:43:57;17.00;;;5.35;;
46561;SDS011;32289;42.688;23.330;2022-10-24T23:55:47;17.13;;;5.93;;
46561;SDS011;32289;42.688;23.330;2022-10-24T23:59:28;16.70;;;6.30;;
